sensor_id;sensor_type;location;lat;lon;timestamp;P1;durP1;ratioP1;P2;durP2;ratioP2
71759;SDS011;59919;48.112;16.280;2024-02-16T00:00:34;5.18;;;3.17;;
71759;SDS011;59919;48.112;16.280;2024-02-16T00:03:05;5.90;;;3.08;;
71759;SDS011;59919;48.112;16.280;2024-02-16T00:05:37;4.45;;;3.25;;
71759;SDS011;59919;48.112;16.280;2024-02-16T00:08:08;4.78;;;3.53;;
71759;SDS011;59919;48.112;16.280;2024-02-16T00:10:39;3.95;;;3.10;;
71759;SDS011;59919;48.112;16.280;2024-02-16T00:13:10;5.40;;;3.20;;
71759;SDS011;59919;48.112;16.280;2024-02-16T00:15:41;4.40;;;2.88;;
71759;SDS011;59919;48.112;16.280;2024-02-16T00:18:12;4.70;;;2.90;;
71759;SDS011;59919;48.112;16.280;2024-02-16T00:20:43;4.05;;;3.10;;
71759;SDS011;59919;48.112;16.280;2024-02-16T00:23:14;3.63;;;3.15;;
71759;SDS011;59919;48.112;16.280;2024-02-16T00:25:45;4.63;;;3.30;;
71759;SDS011;59919;48.112;16.280;2024-02-16T00:28:16;4.13;;;3.00;;
71759;SDS011;59919;48.112;16.280;2024-02-16T00:30:48;4.50;;;3.42;;
71759;SDS011;59919;48.112;16.280;2024-02-16T00:33:19;3.92;;;3.10;;
71759;SDS011;59919;48.112;16.280;2024-02-16T00:35:50;5.82;;;3.42;;
71759;SDS011;59919;48.112;16.280;2024-02-16T00:38:23;4.88;;;3.13;;
71759;SDS011;59919;48.112;16.280;2024-02-16T00:40:54;4.35;;;3.28;;
71759;SDS011;59919;48.112;16.280;2024-02-16T00:43:25;3.80;;;3.03;;
71759;SDS011;59919;48.112;16.280;2024-02-16T00:45:56;4.30;;;3.38;;
71759;SDS011;59919;48.112;16.280;2024-02-16T00:48:27;3.67;;;3.13;;
71759;SDS011;59919;48.112;16.280;2024-02-16T00:50:58;5.75;;;3.53;;
71759;SDS011;59919;48.112;16.280;2024-02-16T00:53:30;4.30;;;3.30;;
71759;SDS011;59919;48.112;16.280;2024-02-16T00:56:01;4.90;;;3.08;;
71759;SDS011;59919;48.112;16.280;2024-02-16T00:58:32;3.78;;;3.20;;
71759;SDS011;59919;48.112;16.280;2024-02-16T01:01:03;4.22;;;3.10;;
71759;SDS011;59919;48.112;16.280;2024-02-16T01:03:34;3.65;;;2.90;;
71759;SDS011;59919;48.112;16.280;2024-02-16T01:06:06;3.47;;;3.10;;
71759;SDS011;59919;48.112;16.280;2024-02-16T01:08:39;4.82;;;3.08;;
71759;SDS011;59919;48.112;16.280;2024-02-16T01:11:10;6.05;;;3.35;;
71759;SDS011;59919;48.112;16.280;2024-02-16T01:13:41;4.10;;;3.15;;
71759;SDS011;59919;48.112;16.280;2024-02-16T01:16:13;4.90;;;3.25;;
71759;SDS011;59919;48.112;16.280;2024-02-16T01:18:44;5.18;;;3.40;;
71759;SDS011;59919;48.112;16.280;2024-02-16T01:21:15;3.88;;;2.90;;
71759;SDS011;59919;48.112;16.280;2024-02-16T01:23:47;3.78;;;2.88;;
71759;SDS011;59919;48.112;16.280;2024-02-16T01:26:18;3.83;;;2.92;;
71759;SDS011;59919;48.112;16.280;2024-02-16T01:28:49;5.30;;;3.30;;
71759;SDS011;59919;48.112;16.280;2024-02-16T01:31:20;4.75;;;3.50;;
71759;SDS011;59919;48.112;16.280;2024-02-16T01:33:51;3.72;;;3.30;;
71759;SDS011;59919;48.112;16.280;2024-02-16T01:36:23;5.60;;;3.08;;
71759;SDS011;59919;48.112;16.280;2024-02-16T01:38:54;5.25;;;3.10;;
71759;SDS011;59919;48.112;16.280;2024-02-16T01:41:25;3.75;;;3.00;;
71759;SDS011;59919;48.112;16.280;2024-02-16T01:43:56;5.05;;;3.35;;
71759;SDS011;59919;48.112;16.280;2024-02-16T01:46:27;6.32;;;3.00;;
71759;SDS011;59919;48.112;16.280;2024-02-16T01:48:58;4.00;;;3.45;;
71759;SDS011;59919;48.112;16.280;2024-02-16T01:51:29;4.90;;;3.38;;
71759;SDS011;59919;48.112;16.280;2024-02-16T01:54:01;4.72;;;3.33;;
71759;SDS011;59919;48.112;16.280;2024-02-16T01:56:32;4.75;;;3.30;;
71759;SDS011;59919;48.112;16.280;2024-02-16T01:59:03;7.28;;;2.90;;
71759;SDS011;59919;48.112;16.280;2024-02-16T02:01:35;3.92;;;3.38;;
71759;SDS011;59919;48.112;16.280;2024-02-16T02:04:06;4.78;;;3.30;;
71759;SDS011;59919;48.112;16.280;2024-02-16T02:06:37;4.35;;;2.95;;
71759;SDS011;59919;48.112;16.280;2024-02-16T02:09:09;4.15;;;2.90;;
71759;SDS011;59919;48.112;16.280;2024-02-16T02:11:40;3.42;;;2.97;;
71759;SDS011;59919;48.112;16.280;2024-02-16T02:14:11;3.92;;;3.17;;
71759;SDS011;59919;48.112;16.280;2024-02-16T02:16:42;4.10;;;3.17;;
71759;SDS011;59919;48.112;16.280;2024-02-16T02:19:13;4.30;;;3.25;;
71759;SDS011;59919;48.112;16.280;2024-02-16T02:21:44;4.45;;;2.92;;
71759;SDS011;59919;48.112;16.280;2024-02-16T02:24:15;3.50;;;2.78;;
71759;SDS011;59919;48.112;16.280;2024-02-16T02:26:47;5.10;;;3.15;;
71759;SDS011;59919;48.112;16.280;2024-02-16T02:29:18;3.75;;;3.10;;
71759;SDS011;59919;48.112;16.280;2024-02-16T02:31:49;6.28;;;3.60;;
71759;SDS011;59919;48.112;16.280;2024-02-16T02:34:20;4.38;;;3.33;;
71759;SDS011;59919;48.112;16.280;2024-02-16T02:36:51;4.30;;;2.88;;
71759;SDS011;59919;48.112;16.280;2024-02-16T02:39:22;3.38;;;2.80;;
71759;SDS011;59919;48.112;16.280;2024-02-16T02:41:53;4.38;;;3.25;;
71759;SDS011;59919;48.112;16.280;2024-02-16T02:44:24;4.35;;;3.30;;
71759;SDS011;59919;48.112;16.280;2024-02-16T02:46:55;3.33;;;2.90;;
71759;SDS011;59919;48.112;16.280;2024-02-16T02:49:26;4.53;;;3.20;;
71759;SDS011;59919;48.112;16.280;2024-02-16T02:51:57;4.28;;;3.05;;
71759;SDS011;59919;48.112;16.280;2024-02-16T02:54:29;3.78;;;2.70;;
71759;SDS011;59919;48.112;16.280;2024-02-16T02:57:01;4.50;;;2.78;;
71759;SDS011;59919;48.112;16.280;2024-02-16T02:59:32;4.95;;;3.25;;
71759;SDS011;59919;48.112;16.280;2024-02-16T03:02:14;4.70;;;3.38;;
71759;SDS011;59919;48.112;16.280;2024-02-16T03:04:45;4.57;;;3.50;;
71759;SDS011;59919;48.112;16.280;2024-02-16T03:07:16;3.55;;;3.20;;
71759;SDS011;59919;48.112;16.280;2024-02-16T03:09:47;4.68;;;3.20;;
71759;SDS011;59919;48.112;16.280;2024-02-16T03:12:18;3.40;;;3.00;;
71759;SDS011;59919;48.112;16.280;2024-02-16T03:14:49;3.80;;;3.40;;
71759;SDS011;59919;48.112;16.280;2024-02-16T03:17:20;3.65;;;2.92;;
71759;SDS011;59919;48.112;16.280;2024-02-16T03:19:51;3.65;;;2.92;;
71759;SDS011;59919;48.112;16.280;2024-02-16T03:22:22;4.18;;;3.08;;
71759;SDS011;59919;48.112;16.280;2024-02-16T03:24:53;4.70;;;3.38;;
71759;SDS011;59919;48.112;16.280;2024-02-16T03:27:24;3.90;;;2.97;;
71759;SDS011;59919;48.112;16.280;2024-02-16T03:29:55;4.13;;;3.08;;
71759;SDS011;59919;48.112;16.280;2024-02-16T03:32:26;3.30;;;2.97;;
71759;SDS011;59919;48.112;16.280;2024-02-16T03:34:57;4.72;;;3.00;;
71759;SDS011;59919;48.112;16.280;2024-02-16T03:37:29;3.92;;;3.20;;
71759;SDS011;59919;48.112;16.280;2024-02-16T03:40:01;5.28;;;2.95;;
71759;SDS011;59919;48.112;16.280;2024-02-16T03:42:32;5.43;;;3.28;;
71759;SDS011;59919;48.112;16.280;2024-02-16T03:45:03;4.85;;;2.92;;
71759;SDS011;59919;48.112;16.280;2024-02-16T03:47:34;3.85;;;3.20;;
71759;SDS011;59919;48.112;16.280;2024-02-16T03:53:25;3.75;;;2.60;;
71759;SDS011;59919;48.112;16.280;2024-02-16T03:55:57;3.75;;;2.90;;
71759;SDS011;59919;48.112;16.280;2024-02-16T03:58:28;5.25;;;3.35;;
71759;SDS011;59919;48.112;16.280;2024-02-16T04:00:59;3.95;;;3.40;;
71759;SDS011;59919;48.112;16.280;2024-02-16T04:03:30;4.20;;;3.30;;
71759;SDS011;59919;48.112;16.280;2024-02-16T04:06:02;5.28;;;3.20;;
71759;SDS011;59919;48.112;16.280;2024-02-16T04:08:35;5.22;;;3.13;;
71759;SDS011;59919;48.112;16.280;2024-02-16T04:11:06;4.47;;;3.42;;
71759;SDS011;59919;48.112;16.280;2024-02-16T04:13:37;4.90;;;3.33;;
71759;SDS011;59919;48.112;16.280;2024-02-16T04:16:08;3.50;;;3.17;;
71759;SDS011;59919;48.112;16.280;2024-02-16T04:18:39;3.97;;;3.08;;
71759;SDS011;59919;48.112;16.280;2024-02-16T04:21:10;3.70;;;3.40;;
71759;SDS011;59919;48.112;16.280;2024-02-16T04:23:41;4.22;;;3.28;;
71759;SDS011;59919;48.112;16.280;2024-02-16T04:26:12;4.25;;;3.38;;
71759;SDS011;59919;48.112;16.280;2024-02-16T04:28:43;3.90;;;3.03;;
71759;SDS011;59919;48.112;16.280;2024-02-16T04:31:14;3.90;;;2.90;;
71759;SDS011;59919;48.112;16.280;2024-02-16T04:33:45;5.22;;;3.45;;
71759;SDS011;59919;48.112;16.280;2024-02-16T04:36:16;6.88;;;3.47;;
71759;SDS011;59919;48.112;16.280;2024-02-16T04:38:48;3.47;;;3.15;;
71759;SDS011;59919;48.112;16.280;2024-02-16T04:41:19;3.97;;;3.20;;
71759;SDS011;59919;48.112;16.280;2024-02-16T04:43:51;4.63;;;3.20;;
71759;SDS011;59919;48.112;16.280;2024-02-16T04:46:23;4.00;;;3.55;;
71759;SDS011;59919;48.112;16.280;2024-02-16T04:48:54;3.72;;;3.00;;
71759;SDS011;59919;48.112;16.280;2024-02-16T04:51:25;4.50;;;3.10;;
71759;SDS011;59919;48.112;16.280;2024-02-16T04:53:56;4.43;;;3.45;;
71759;SDS011;59919;48.112;16.280;2024-02-16T04:56:27;4.10;;;3.10;;
71759;SDS011;59919;48.112;16.280;2024-02-16T04:58:58;3.17;;;2.88;;
71759;SDS011;59919;48.112;16.280;2024-02-16T05:01:30;4.15;;;3.00;;
71759;SDS011;59919;48.112;16.280;2024-02-16T05:04:02;4.20;;;3.45;;
71759;SDS011;59919;48.112;16.280;2024-02-16T05:06:33;4.18;;;3.15;;
71759;SDS011;59919;48.112;16.280;2024-02-16T05:09:10;4.38;;;3.72;;
71759;SDS011;59919;48.112;16.280;2024-02-16T05:11:41;4.65;;;3.10;;
71759;SDS011;59919;48.112;16.280;2024-02-16T05:14:13;3.45;;;2.83;;
71759;SDS011;59919;48.112;16.280;2024-02-16T05:16:44;4.85;;;3.60;;
71759;SDS011;59919;48.112;16.280;2024-02-16T05:19:16;5.88;;;3.60;;
71759;SDS011;59919;48.112;16.280;2024-02-16T05:21:47;6.57;;;3.40;;
71759;SDS011;59919;48.112;16.280;2024-02-16T05:24:18;4.90;;;3.38;;
71759;SDS011;59919;48.112;16.280;2024-02-16T05:26:51;5.18;;;3.40;;
71759;SDS011;59919;48.112;16.280;2024-02-16T05:29:22;7.65;;;3.60;;
71759;SDS011;59919;48.112;16.280;2024-02-16T05:31:54;6.18;;;3.40;;
71759;SDS011;59919;48.112;16.280;2024-02-16T05:34:25;4.53;;;3.40;;
71759;SDS011;59919;48.112;16.280;2024-02-16T05:36:56;7.03;;;3.53;;
71759;SDS011;59919;48.112;16.280;2024-02-16T05:39:27;7.82;;;3.33;;
71759;SDS011;59919;48.112;16.280;2024-02-16T05:42:02;5.47;;;3.53;;
71759;SDS011;59919;48.112;16.280;2024-02-16T05:44:33;4.60;;;3.45;;
71759;SDS011;59919;48.112;16.280;2024-02-16T05:47:04;5.68;;;3.33;;
71759;SDS011;59919;48.112;16.280;2024-02-16T05:49:35;6.50;;;3.70;;
71759;SDS011;59919;48.112;16.280;2024-02-16T05:52:09;5.55;;;3.45;;
71759;SDS011;59919;48.112;16.280;2024-02-16T05:54:49;6.45;;;3.33;;
71759;SDS011;59919;48.112;16.280;2024-02-16T05:57:20;5.07;;;4.05;;
71759;SDS011;59919;48.112;16.280;2024-02-16T05:59:51;8.10;;;4.00;;
71759;SDS011;59919;48.112;16.280;2024-02-16T06:02:22;5.22;;;4.22;;
71759;SDS011;59919;48.112;16.280;2024-02-16T06:04:56;7.35;;;4.40;;
71759;SDS011;59919;48.112;16.280;2024-02-16T06:07:28;9.43;;;4.72;;
71759;SDS011;59919;48.112;16.280;2024-02-16T06:09:59;6.55;;;4.28;;
71759;SDS011;59919;48.112;16.280;2024-02-16T06:12:31;6.10;;;3.65;;
71759;SDS011;59919;48.112;16.280;2024-02-16T06:15:02;9.65;;;4.05;;
71759;SDS011;59919;48.112;16.280;2024-02-16T06:17:34;5.97;;;4.10;;
71759;SDS011;59919;48.112;16.280;2024-02-16T06:20:07;11.25;;;4.35;;
71759;SDS011;59919;48.112;16.280;2024-02-16T06:22:40;7.10;;;3.90;;
71759;SDS011;59919;48.112;16.280;2024-02-16T06:25:12;20.13;;;4.05;;
71759;SDS011;59919;48.112;16.280;2024-02-16T06:27:43;6.78;;;4.18;;
71759;SDS011;59919;48.112;16.280;2024-02-16T06:30:14;17.85;;;4.88;;
71759;SDS011;59919;48.112;16.280;2024-02-16T06:32:45;57.90;;;11.30;;
71759;SDS011;59919;48.112;16.280;2024-02-16T06:35:16;56.35;;;11.10;;
71759;SDS011;59919;48.112;16.280;2024-02-16T06:37:47;28.90;;;7.75;;
71759;SDS011;59919;48.112;16.280;2024-02-16T06:40:18;42.65;;;8.88;;
71759;SDS011;59919;48.112;16.280;2024-02-16T06:42:49;23.85;;;7.70;;
71759;SDS011;59919;48.112;16.280;2024-02-16T06:45:20;27.40;;;7.45;;
71759;SDS011;59919;48.112;16.280;2024-02-16T06:47:51;30.38;;;7.90;;
71759;SDS011;59919;48.112;16.280;2024-02-16T06:50:22;27.77;;;7.10;;
71759;SDS011;59919;48.112;16.280;2024-02-16T06:52:53;25.88;;;7.03;;
71759;SDS011;59919;48.112;16.280;2024-02-16T06:55:25;22.98;;;6.68;;
71759;SDS011;59919;48.112;16.280;2024-02-16T06:57:56;20.40;;;5.93;;
71759;SDS011;59919;48.112;16.280;2024-02-16T07:00:28;21.27;;;7.03;;
71759;SDS011;59919;48.112;16.280;2024-02-16T07:02:59;18.30;;;6.18;;
71759;SDS011;59919;48.112;16.280;2024-02-16T07:05:30;22.17;;;5.85;;
71759;SDS011;59919;48.112;16.280;2024-02-16T07:08:03;19.60;;;5.97;;
71759;SDS011;59919;48.112;16.280;2024-02-16T07:10:36;17.27;;;6.45;;
71759;SDS011;59919;48.112;16.280;2024-02-16T07:13:08;20.08;;;6.30;;
71759;SDS011;59919;48.112;16.280;2024-02-16T07:15:39;14.05;;;6.07;;
71759;SDS011;59919;48.112;16.280;2024-02-16T07:18:11;18.67;;;6.85;;
71759;SDS011;59919;48.112;16.280;2024-02-16T07:20:43;18.05;;;5.97;;
71759;SDS011;59919;48.112;16.280;2024-02-16T07:23:14;17.80;;;6.18;;
71759;SDS011;59919;48.112;16.280;2024-02-16T07:25:45;18.33;;;6.75;;
71759;SDS011;59919;48.112;16.280;2024-02-16T07:28:17;14.15;;;5.60;;
71759;SDS011;59919;48.112;16.280;2024-02-16T07:30:48;15.77;;;5.70;;
71759;SDS011;59919;48.112;16.280;2024-02-16T07:33:20;13.35;;;5.97;;
71759;SDS011;59919;48.112;16.280;2024-02-16T07:35:51;16.08;;;5.32;;
71759;SDS011;59919;48.112;16.280;2024-02-16T07:38:22;17.30;;;6.57;;
71759;SDS011;59919;48.112;16.280;2024-02-16T07:40:53;15.10;;;5.65;;
71759;SDS011;59919;48.112;16.280;2024-02-16T07:43:25;20.63;;;6.22;;
71759;SDS011;59919;48.112;16.280;2024-02-16T07:45:57;15.60;;;5.55;;
71759;SDS011;59919;48.112;16.280;2024-02-16T07:48:28;15.85;;;5.95;;
71759;SDS011;59919;48.112;16.280;2024-02-16T07:50:59;13.32;;;5.90;;
71759;SDS011;59919;48.112;16.280;2024-02-16T07:53:33;14.98;;;5.30;;
71759;SDS011;59919;48.112;16.280;2024-02-16T07:56:05;12.93;;;5.15;;
71759;SDS011;59919;48.112;16.280;2024-02-16T07:58:36;10.23;;;4.93;;
71759;SDS011;59919;48.112;16.280;2024-02-16T08:01:07;13.70;;;5.13;;
71759;SDS011;59919;48.112;16.280;2024-02-16T08:03:38;15.80;;;5.60;;
71759;SDS011;59919;48.112;16.280;2024-02-16T08:06:11;15.20;;;5.93;;
71759;SDS011;59919;48.112;16.280;2024-02-16T08:08:42;15.32;;;6.05;;
71759;SDS011;59919;48.112;16.280;2024-02-16T08:11:13;10.82;;;5.22;;
71759;SDS011;59919;48.112;16.280;2024-02-16T08:13:44;12.23;;;5.45;;
71759;SDS011;59919;48.112;16.280;2024-02-16T08:16:15;13.40;;;5.38;;
71759;SDS011;59919;48.112;16.280;2024-02-16T08:18:46;14.25;;;5.43;;
71759;SDS011;59919;48.112;16.280;2024-02-16T08:21:17;11.88;;;4.97;;
71759;SDS011;59919;48.112;16.280;2024-02-16T08:23:48;11.82;;;5.80;;
71759;SDS011;59919;48.112;16.280;2024-02-16T08:26:19;12.38;;;5.45;;
71759;SDS011;59919;48.112;16.280;2024-02-16T08:28:51;10.65;;;5.72;;
71759;SDS011;59919;48.112;16.280;2024-02-16T08:31:23;12.93;;;5.20;;
71759;SDS011;59919;48.112;16.280;2024-02-16T08:33:54;11.38;;;5.40;;
71759;SDS011;59919;48.112;16.280;2024-02-16T08:36:25;10.90;;;4.82;;
71759;SDS011;59919;48.112;16.280;2024-02-16T08:38:59;9.82;;;4.70;;
71759;SDS011;59919;48.112;16.280;2024-02-16T08:41:30;13.73;;;5.25;;
71759;SDS011;59919;48.112;16.280;2024-02-16T08:44:01;12.20;;;5.03;;
71759;SDS011;59919;48.112;16.280;2024-02-16T08:46:32;10.50;;;5.00;;
71759;SDS011;59919;48.112;16.280;2024-02-16T08:49:04;14.70;;;4.65;;
71759;SDS011;59919;48.112;16.280;2024-02-16T08:51:36;9.02;;;4.60;;
71759;SDS011;59919;48.112;16.280;2024-02-16T08:54:07;10.02;;;4.93;;
71759;SDS011;59919;48.112;16.280;2024-02-16T08:56:38;11.93;;;5.20;;
71759;SDS011;59919;48.112;16.280;2024-02-16T08:59:09;12.85;;;4.78;;
71759;SDS011;59919;48.112;16.280;2024-02-16T09:01:42;14.15;;;5.45;;
71759;SDS011;59919;48.112;16.280;2024-02-16T09:04:13;11.85;;;4.78;;
71759;SDS011;59919;48.112;16.280;2024-02-16T09:06:46;10.82;;;4.65;;
71759;SDS011;59919;48.112;16.280;2024-02-16T09:09:17;9.02;;;4.93;;
71759;SDS011;59919;48.112;16.280;2024-02-16T09:11:48;10.80;;;4.50;;
71759;SDS011;59919;48.112;16.280;2024-02-16T09:14:19;10.05;;;4.55;;
71759;SDS011;59919;48.112;16.280;2024-02-16T09:16:50;13.45;;;5.05;;
71759;SDS011;59919;48.112;16.280;2024-02-16T09:19:24;11.27;;;4.57;;
71759;SDS011;59919;48.112;16.280;2024-02-16T09:21:55;10.80;;;4.68;;
71759;SDS011;59919;48.112;16.280;2024-02-16T09:24:28;11.13;;;4.78;;
71759;SDS011;59919;48.112;16.280;2024-02-16T09:27:00;8.25;;;4.65;;
71759;SDS011;59919;48.112;16.280;2024-02-16T09:29:34;6.88;;;4.30;;
71759;SDS011;59919;48.112;16.280;2024-02-16T09:32:05;11.95;;;4.65;;
71759;SDS011;59919;48.112;16.280;2024-02-16T09:34:36;12.43;;;4.72;;
71759;SDS011;59919;48.112;16.280;2024-02-16T09:37:07;10.38;;;4.68;;
71759;SDS011;59919;48.112;16.280;2024-02-16T09:39:38;6.93;;;4.20;;
71759;SDS011;59919;48.112;16.280;2024-02-16T09:42:09;8.63;;;4.68;;
71759;SDS011;59919;48.112;16.280;2024-02-16T09:44:41;10.15;;;4.70;;
71759;SDS011;59919;48.112;16.280;2024-02-16T09:47:13;7.90;;;4.50;;
71759;SDS011;59919;48.112;16.280;2024-02-16T09:49:45;10.35;;;4.70;;
71759;SDS011;59919;48.112;16.280;2024-02-16T09:52:18;9.27;;;4.35;;
71759;SDS011;59919;48.112;16.280;2024-02-16T09:54:49;12.30;;;4.10;;
71759;SDS011;59919;48.112;16.280;2024-02-16T09:57:20;9.73;;;4.05;;
71759;SDS011;59919;48.112;16.280;2024-02-16T09:59:51;10.20;;;4.53;;
71759;SDS011;59919;48.112;16.280;2024-02-16T10:02:22;13.00;;;4.68;;
71759;SDS011;59919;48.112;16.280;2024-02-16T10:04:54;8.43;;;4.53;;
71759;SDS011;59919;48.112;16.280;2024-02-16T10:07:31;10.15;;;4.78;;
71759;SDS011;59919;48.112;16.280;2024-02-16T10:10:02;10.90;;;4.40;;
71759;SDS011;59919;48.112;16.280;2024-02-16T10:12:34;9.15;;;4.53;;
71759;SDS011;59919;48.112;16.280;2024-02-16T10:15:05;9.25;;;4.07;;
71759;SDS011;59919;48.112;16.280;2024-02-16T10:17:37;9.05;;;4.32;;
71759;SDS011;59919;48.112;16.280;2024-02-16T10:20:08;9.52;;;4.00;;
71759;SDS011;59919;48.112;16.280;2024-02-16T10:22:41;7.80;;;4.47;;
71759;SDS011;59919;48.112;16.280;2024-02-16T10:25:13;8.73;;;4.45;;
71759;SDS011;59919;48.112;16.280;2024-02-16T10:27:46;8.90;;;4.10;;
71759;SDS011;59919;48.112;16.280;2024-02-16T10:30:18;6.60;;;3.30;;
71759;SDS011;59919;48.112;16.280;2024-02-16T10:32:50;6.60;;;4.05;;
71759;SDS011;59919;48.112;16.280;2024-02-16T10:35:21;6.65;;;3.42;;
71759;SDS011;59919;48.112;16.280;2024-02-16T10:37:54;5.72;;;3.42;;
71759;SDS011;59919;48.112;16.280;2024-02-16T10:40:27;6.90;;;3.25;;
71759;SDS011;59919;48.112;16.280;2024-02-16T10:42:59;9.07;;;3.85;;
71759;SDS011;59919;48.112;16.280;2024-02-16T10:45:35;9.68;;;4.03;;
71759;SDS011;59919;48.112;16.280;2024-02-16T10:48:10;7.90;;;3.53;;
71759;SDS011;59919;48.112;16.280;2024-02-16T10:50:41;6.15;;;3.65;;
71759;SDS011;59919;48.112;16.280;2024-02-16T10:53:46;7.55;;;3.80;;
71759;SDS011;59919;48.112;16.280;2024-02-16T10:56:10;6.70;;;3.03;;
71759;SDS011;59919;48.112;16.280;2024-02-16T10:58:41;6.13;;;3.30;;
71759;SDS011;59919;48.112;16.280;2024-02-16T11:01:14;5.18;;;3.28;;
71759;SDS011;59919;48.112;16.280;2024-02-16T11:03:46;6.95;;;3.08;;
71759;SDS011;59919;48.112;16.280;2024-02-16T11:06:17;6.32;;;3.30;;
71759;SDS011;59919;48.112;16.280;2024-02-16T11:08:49;7.40;;;3.50;;
71759;SDS011;59919;48.112;16.280;2024-02-16T11:11:24;4.72;;;2.83;;
71759;SDS011;59919;48.112;16.280;2024-02-16T11:13:55;7.63;;;3.20;;
71759;SDS011;59919;48.112;16.280;2024-02-16T11:16:30;7.25;;;3.63;;
71759;SDS011;59919;48.112;16.280;2024-02-16T11:19:01;6.00;;;3.00;;
71759;SDS011;59919;48.112;16.280;2024-02-16T11:21:35;7.55;;;3.10;;
71759;SDS011;59919;48.112;16.280;2024-02-16T11:24:06;6.63;;;3.08;;
71759;SDS011;59919;48.112;16.280;2024-02-16T11:26:42;5.60;;;3.30;;
71759;SDS011;59919;48.112;16.280;2024-02-16T11:29:15;4.78;;;3.10;;
71759;SDS011;59919;48.112;16.280;2024-02-16T11:31:46;5.53;;;3.10;;
71759;SDS011;59919;48.112;16.280;2024-02-16T11:34:22;5.68;;;2.78;;
71759;SDS011;59919;48.112;16.280;2024-02-16T11:36:56;4.00;;;2.70;;
71759;SDS011;59919;48.112;16.280;2024-02-16T11:39:28;5.63;;;3.05;;
71759;SDS011;59919;48.112;16.280;2024-02-16T11:42:06;5.43;;;3.22;;
71759;SDS011;59919;48.112;16.280;2024-02-16T11:44:38;6.72;;;3.03;;
71759;SDS011;59919;48.112;16.280;2024-02-16T11:47:10;5.45;;;3.30;;
71759;SDS011;59919;48.112;16.280;2024-02-16T11:49:46;5.93;;;3.08;;
71759;SDS011;59919;48.112;16.280;2024-02-16T11:52:17;5.35;;;3.00;;
71759;SDS011;59919;48.112;16.280;2024-02-16T11:54:48;5.22;;;3.13;;
71759;SDS011;59919;48.112;16.280;2024-02-16T11:57:19;6.00;;;2.95;;
71759;SDS011;59919;48.112;16.280;2024-02-16T11:59:50;6.60;;;3.00;;
71759;SDS011;59919;48.112;16.280;2024-02-16T12:02:23;6.07;;;2.92;;
71759;SDS011;59919;48.112;16.280;2024-02-16T12:04:58;4.38;;;2.72;;
71759;SDS011;59919;48.112;16.280;2024-02-16T12:07:30;4.68;;;3.28;;
71759;SDS011;59919;48.112;16.280;2024-02-16T12:10:02;5.28;;;2.67;;
71759;SDS011;59919;48.112;16.280;2024-02-16T12:12:36;7.55;;;3.20;;
71759;SDS011;59919;48.112;16.280;2024-02-16T12:15:08;5.70;;;3.38;;
71759;SDS011;59919;48.112;16.280;2024-02-16T12:17:42;5.43;;;2.75;;
71759;SDS011;59919;48.112;16.280;2024-02-16T12:20:13;7.28;;;3.00;;
71759;SDS011;59919;48.112;16.280;2024-02-16T12:22:44;6.57;;;2.75;;
71759;SDS011;59919;48.112;16.280;2024-02-16T12:25:15;6.70;;;2.90;;
71759;SDS011;59919;48.112;16.280;2024-02-16T12:27:46;8.40;;;3.17;;
71759;SDS011;59919;48.112;16.280;2024-02-16T12:30:17;6.95;;;2.92;;
71759;SDS011;59919;48.112;16.280;2024-02-16T12:32:48;5.63;;;3.15;;
71759;SDS011;59919;48.112;16.280;2024-02-16T12:35:19;9.52;;;3.00;;
71759;SDS011;59919;48.112;16.280;2024-02-16T12:37:50;9.30;;;2.53;;
71759;SDS011;59919;48.112;16.280;2024-02-16T12:40:22;7.20;;;3.10;;
71759;SDS011;59919;48.112;16.280;2024-02-16T12:42:53;8.88;;;2.92;;
71759;SDS011;59919;48.112;16.280;2024-02-16T12:45:24;7.22;;;2.92;;
71759;SDS011;59919;48.112;16.280;2024-02-16T12:47:55;6.82;;;3.17;;
71759;SDS011;59919;48.112;16.280;2024-02-16T12:50:26;8.43;;;2.67;;
71759;SDS011;59919;48.112;16.280;2024-02-16T12:52:57;5.32;;;2.45;;
71759;SDS011;59919;48.112;16.280;2024-02-16T12:55:29;6.75;;;2.58;;
71759;SDS011;59919;48.112;16.280;2024-02-16T12:58:01;6.55;;;2.65;;
71759;SDS011;59919;48.112;16.280;2024-02-16T13:00:32;6.47;;;2.60;;
71759;SDS011;59919;48.112;16.280;2024-02-16T13:03:03;8.73;;;2.90;;
71759;SDS011;59919;48.112;16.280;2024-02-16T13:05:34;6.30;;;2.42;;
71759;SDS011;59919;48.112;16.280;2024-02-16T13:08:06;3.85;;;2.38;;
71759;SDS011;59919;48.112;16.280;2024-02-16T13:10:37;6.75;;;3.20;;
71759;SDS011;59919;48.112;16.280;2024-02-16T13:13:08;4.63;;;2.38;;
71759;SDS011;59919;48.112;16.280;2024-02-16T13:15:39;6.40;;;2.50;;
71759;SDS011;59919;48.112;16.280;2024-02-16T13:18:10;5.15;;;2.55;;
71759;SDS011;59919;48.112;16.280;2024-02-16T13:20:41;4.47;;;2.53;;
71759;SDS011;59919;48.112;16.280;2024-02-16T13:23:13;5.65;;;2.60;;
71759;SDS011;59919;48.112;16.280;2024-02-16T13:25:44;5.07;;;2.70;;
71759;SDS011;59919;48.112;16.280;2024-02-16T13:28:16;3.60;;;2.47;;
71759;SDS011;59919;48.112;16.280;2024-02-16T13:30:47;4.18;;;2.50;;
71759;SDS011;59919;48.112;16.280;2024-02-16T13:33:18;4.60;;;2.78;;
71759;SDS011;59919;48.112;16.280;2024-02-16T13:35:49;5.55;;;3.08;;
71759;SDS011;59919;48.112;16.280;2024-02-16T13:38:20;4.57;;;2.33;;
71759;SDS011;59919;48.112;16.280;2024-02-16T13:40:51;4.88;;;2.53;;
71759;SDS011;59919;48.112;16.280;2024-02-16T13:43:22;4.28;;;2.70;;
71759;SDS011;59919;48.112;16.280;2024-02-16T13:45:53;4.68;;;2.60;;
71759;SDS011;59919;48.112;16.280;2024-02-16T13:48:26;4.38;;;2.72;;
71759;SDS011;59919;48.112;16.280;2024-02-16T13:50:58;5.10;;;2.88;;
71759;SDS011;59919;48.112;16.280;2024-02-16T13:53:30;5.70;;;3.15;;
71759;SDS011;59919;48.112;16.280;2024-02-16T13:56:02;5.90;;;3.00;;
71759;SDS011;59919;48.112;16.280;2024-02-16T13:58:34;5.43;;;2.92;;
71759;SDS011;59919;48.112;16.280;2024-02-16T14:01:05;5.90;;;2.65;;
71759;SDS011;59919;48.112;16.280;2024-02-16T14:03:37;4.90;;;2.60;;
71759;SDS011;59919;48.112;16.280;2024-02-16T14:06:08;5.22;;;2.80;;
71759;SDS011;59919;48.112;16.280;2024-02-16T14:08:41;7.05;;;2.85;;
71759;SDS011;59919;48.112;16.280;2024-02-16T14:11:12;4.28;;;2.70;;
71759;SDS011;59919;48.112;16.280;2024-02-16T14:13:43;7.70;;;2.88;;
71759;SDS011;59919;48.112;16.280;2024-02-16T14:16:14;4.22;;;2.83;;
71759;SDS011;59919;48.112;16.280;2024-02-16T14:18:45;5.85;;;2.58;;
71759;SDS011;59919;48.112;16.280;2024-02-16T14:21:16;5.78;;;2.58;;
71759;SDS011;59919;48.112;16.280;2024-02-16T14:23:47;5.07;;;2.70;;
71759;SDS011;59919;48.112;16.280;2024-02-16T14:26:18;5.25;;;2.58;;
71759;SDS011;59919;48.112;16.280;2024-02-16T14:28:50;5.78;;;2.92;;
71759;SDS011;59919;48.112;16.280;2024-02-16T14:31:21;4.93;;;2.83;;
71759;SDS011;59919;48.112;16.280;2024-02-16T14:33:52;3.67;;;2.38;;
71759;SDS011;59919;48.112;16.280;2024-02-16T14:36:24;3.72;;;2.30;;
71759;SDS011;59919;48.112;16.280;2024-02-16T14:38:55;5.95;;;3.15;;
71759;SDS011;59919;48.112;16.280;2024-02-16T14:41:26;5.97;;;2.60;;
71759;SDS011;59919;48.112;16.280;2024-02-16T14:43:58;4.07;;;2.40;;
71759;SDS011;59919;48.112;16.280;2024-02-16T14:46:31;4.57;;;2.55;;
71759;SDS011;59919;48.112;16.280;2024-02-16T14:49:02;4.60;;;2.30;;
71759;SDS011;59919;48.112;16.280;2024-02-16T14:51:33;4.68;;;2.80;;
71759;SDS011;59919;48.112;16.280;2024-02-16T14:54:04;5.75;;;2.75;;
71759;SDS011;59919;48.112;16.280;2024-02-16T14:56:35;8.32;;;3.83;;
71759;SDS011;59919;48.112;16.280;2024-02-16T14:59:06;10.88;;;3.30;;